Time;durP1;ratioP1;P1;durP2;ratioP2;P2;SDS_P1;SDS_P2;PMS_P1;PMS_P2;Temp;Humidity;BMP_temperature;BMP_pressure;BME280_temperature;BME280_humidity;BME280_pressure;Samples;Min_cycle;Max_cycle;Signal;HPM_P1;HPM_P2
2022/12/07 00:00:14;;;;;;;26.50;19.67;;;;;;;3.39;100.00;100881.84;694662;28;897;-65
2022/12/07 00:00:35;;;;;;;27.67;19.77;;;;;;;3.36;100.00;100885.19;696620;28;919;-65
2022/12/07 00:01:04;;;;;;;27.73;19.57;;;;;;;3.36;100.00;100882.63;699448;28;4309;-65
2022/12/07 00:01:28;;;;;;;30.05;19.98;;;;;;;3.50;100.00;100884.72;700834;28;1221;-65
2022/12/07 00:01:48;;;;;;;29.63;20.35;;;;;;;3.52;100.00;100883.94;698662;28;884;-65
2022/12/07 00:02:09;;;;;;;30.33;20.53;;;;;;;3.54;100.00;100886.56;699783;28;1914;-65
2022/12/07 00:02:30;;;;;;;30.23;20.00;;;;;;;3.51;100.00;100883.91;698354;28;910;-66
2022/12/07 00:02:51;;;;;;;26.08;19.08;;;;;;;3.46;100.00;100878.63;698930;28;881;-66
2022/12/07 00:03:11;;;;;;;26.50;19.17;;;;;;;3.41;100.00;100887.94;696631;28;1165;-66
2022/12/07 00:03:32;;;;;;;26.83;20.05;;;;;;;3.48;100.00;100881.22;698332;28;1220;-65
2022/12/07 00:03:56;;;;;;;27.23;19.80;;;;;;;3.51;100.00;100882.19;696196;28;4268;-65
2022/12/07 00:04:18;;;;;;;28.27;19.45;;;;;;;3.46;100.00;100888.94;696878;28;1046;-66
2022/12/07 00:04:38;;;;;;;28.90;19.38;;;;;;;3.44;100.00;100887.16;697261;28;908;-66
2022/12/07 00:04:58;;;;;;;28.83;19.70;;;;;;;3.41;100.00;100881.03;695338;28;2145;-65
2022/12/07 00:05:18;;;;;;;27.30;19.87;;;;;;;3.46;100.00;100886.38;700415;28;1224;-65
2022/12/07 00:05:39;;;;;;;28.15;20.15;;;;;;;3.43;100.00;100883.66;700444;28;1201;-65
2022/12/07 00:06:00;;;;;;;28.10;19.80;;;;;;;3.39;100.00;100882.72;699853;28;1192;-66
2022/12/07 00:06:21;;;;;;;25.83;20.02;;;;;;;3.37;100.00;100884.38;699023;28;1002;-65
2022/12/07 00:06:44;;;;;;;27.57;20.00;;;;;;;3.39;100.00;100884.41;698042;28;4579;-65
2022/12/07 00:07:04;;;;;;;26.35;19.00;;;;;;;3.37;100.00;100879.22;701154;28;1188;-65
2022/12/07 00:07:25;;;;;;;27.52;19.55;;;;;;;3.37;100.00;100886.09;702751;28;1232;-65
2022/12/07 00:07:45;;;;;;;29.53;20.50;;;;;;;3.36;100.00;100882.63;703044;28;902;-65
2022/12/07 00:08:05;;;;;;;29.25;21.13;;;;;;;3.35;100.00;100880.00;702538;28;863;-67
2022/12/07 00:08:26;;;;;;;27.80;20.00;;;;;;;3.34;100.00;100879.13;703156;28;973;-65
2022/12/07 00:08:47;;;;;;;27.50;19.65;;;;;;;3.33;100.00;100886.84;702273;28;1402;-65
2022/12/07 00:09:12;;;;;;;28.25;20.27;;;;;;;3.29;100.00;100885.88;698650;28;955;-65
2022/12/07 00:09:32;;;;;;;28.02;20.65;;;;;;;3.30;100.00;100881.59;698098;28;847;-65
2022/12/07 00:09:53;;;;;;;29.90;21.33;;;;;;;3.33;100.00;100885.13;699516;28;4246;-65
2022/12/07 00:10:13;;;;;;;29.73;21.53;;;;;;;3.34;100.00;100884.28;699686;28;1297;-65
2022/12/07 00:10:34;;;;;;;31.53;21.13;;;;;;;3.34;100.00;100881.72;699512;28;902;-65
2022/12/07 00:10:55;;;;;;;30.77;20.58;;;;;;;3.32;100.00;100885.94;696800;28;745;-65
2022/12/07 00:11:21;;;;;;;31.42;21.17;;;;;;;3.35;100.00;100883.47;698566;28;1088;-65
2022/12/07 00:11:41;;;;;;;30.27;20.98;;;;;;;3.45;100.00;100882.03;698847;28;1230;-65
2022/12/07 00:12:02;;;;;;;28.52;20.58;;;;;;;3.46;100.00;100882.88;701222;28;924;-65
2022/12/07 00:12:22;;;;;;;27.87;20.00;;;;;;;3.43;100.00;100888.84;700384;28;1183;-67
2022/12/07 00:12:45;;;;;;;30.17;19.95;;;;;;;3.39;100.00;100887.91;700637;28;4462;-65
2022/12/07 00:13:05;;;;;;;27.90;19.92;;;;;;;3.35;100.00;100880.88;700530;28;837;-65
2022/12/07 00:13:26;;;;;;;31.07;21.37;;;;;;;3.32;100.00;100875.59;700772;28;1147;-64
2022/12/07 00:13:50;;;;;;;30.97;21.37;;;;;;;3.33;100.00;100882.53;701252;28;983;-69
2022/12/07 00:14:13;;;;;;;29.08;20.33;;;;;;;3.31;100.00;100879.06;696384;28;955;-65
2022/12/07 00:14:34;;;;;;;29.27;20.50;;;;;;;3.32;100.00;100878.19;695872;28;989;-65
2022/12/07 00:14:54;;;;;;;28.67;21.13;;;;;;;3.32;100.00;100877.34;695098;28;896;-65
2022/12/07 00:15:14;;;;;;;29.20;21.23;;;;;;;3.28;100.00;100878.97;696236;28;1335;-67
2022/12/07 00:15:35;;;;;;;28.30;20.80;;;;;;;3.28;100.00;100873.81;694515;28;1319;-65
2022/12/07 00:15:55;;;;;;;28.35;20.77;;;;;;;3.26;100.00;100878.03;694972;28;4539;-65
2022/12/07 00:16:18;;;;;;;30.27;21.03;;;;;;;3.26;100.00;100878.03;697481;28;1080;-65
2022/12/07 00:16:39;;;;;;;28.42;21.13;;;;;;;3.26;100.00;100878.03;698882;28;1017;-65
2022/12/07 00:16:59;;;;;;;27.92;20.35;;;;;;;3.26;100.00;100878.03;699667;28;1385;-65
2022/12/07 00:17:20;;;;;;;29.13;20.45;;;;;;;3.26;100.00;100867.69;696159;28;927;-65
2022/12/07 00:17:40;;;;;;;30.43;20.87;;;;;;;3.26;100.00;100874.59;698167;28;864;-65
2022/12/07 00:18:00;;;;;;;28.70;21.13;;;;;;;3.24;100.00;100877.13;696755;28;974;-65
2022/12/07 00:18:20;;;;;;;30.13;21.55;;;;;;;3.32;100.00;100869.56;697402;28;972;-65
2022/12/07 00:18:42;;;;;;;32.30;21.87;;;;;;;3.30;100.00;100866.94;697758;28;4622;-65
2022/12/07 00:19:03;;;;;;;31.77;21.27;;;;;;;3.27;100.00;100877.22;698186;28;898;-65
2022/12/07 00:19:24;;;;;;;29.92;20.55;;;;;;;3.26;100.00;100875.44;698576;28;912;-65
2022/12/07 00:19:44;;;;;;;30.10;20.92;;;;;;;3.25;100.00;100871.09;698755;28;991;-65
2022/12/07 00:20:05;;;;;;;29.20;20.90;;;;;;;3.26;100.00;100869.41;696717;28;3595;-65
2022/12/07 00:20:26;;;;;;;29.08;21.58;;;;;;;3.26;100.00;100883.19;698833;28;1195;-65
2022/12/07 00:20:46;;;;;;;29.15;21.42;;;;;;;3.25;100.00;100873.69;699692;28;843;-65
2022/12/07 00:21:11;;;;;;;31.37;21.43;;;;;;;3.31;100.00;100872.97;697663;28;800;-65
2022/12/07 00:21:33;;;;;;;31.60;22.13;;;;;;;3.34;100.00;100871.38;698804;28;959;-65
2022/12/07 00:21:54;;;;;;;30.88;21.33;;;;;;;3.34;100.00;100865.34;698949;28;4317;-65
2022/12/07 00:22:14;;;;;;;29.87;21.50;;;;;;;3.32;100.00;100874.75;699943;28;1913;-65
2022/12/07 00:22:34;;;;;;;30.43;21.73;;;;;;;3.30;100.00;100869.53;698178;28;860;-65
2022/12/07 00:22:55;;;;;;;30.23;21.25;;;;;;;3.30;100.00;100868.69;699595;28;990;-65
2022/12/07 00:23:15;;;;;;;30.20;21.47;;;;;;;3.30;100.00;100873.84;699933;28;992;-66
2022/12/07 00:23:36;;;;;;;31.33;21.00;;;;;;;3.34;100.00;100862.75;697896;28;998;-65
2022/12/07 00:23:57;;;;;;;30.33;21.45;;;;;;;3.32;100.00;100865.28;696840;28;787;-64
2022/12/07 00:24:17;;;;;;;29.70;20.83;;;;;;;3.38;100.00;100870.63;697471;28;1438;-65
2022/12/07 00:24:37;;;;;;;30.77;20.90;;;;;;;3.40;100.00;100868.94;693858;28;4537;-64
2022/12/07 00:24:58;;;;;;;28.97;21.03;;;;;;;3.54;100.00;100876.22;694288;28;792;-64
2022/12/07 00:25:18;;;;;;;28.60;21.23;;;;;;;3.60;100.00;100871.22;694950;28;1282;-65
2022/12/07 00:25:38;;;;;;;28.67;20.37;;;;;;;3.59;100.00;100869.47;694741;28;919;-65
2022/12/07 00:26:08;;;;;;;28.93;20.37;;;;;;;3.52;100.00;100873.59;695611;28;1061;-65
2022/12/07 00:26:32;;;;;;;26.42;19.17;;;;;;;3.47;100.00;100874.31;695502;28;970;-65
2022/12/07 00:26:54;;;;;;;28.13;19.95;;;;;;;3.39;100.00;100872.38;696882;28;895;-65
2022/12/07 00:27:15;;;;;;;28.60;20.33;;;;;;;3.37;100.00;100874.03;694758;28;1391;-66
2022/12/07 00:27:35;;;;;;;26.73;20.33;;;;;;;3.33;100.00;100872.19;695403;28;893;-65
2022/12/07 00:27:56;;;;;;;28.30;20.13;;;;;;;3.30;100.00;100872.13;698473;28;4226;-65
2022/12/07 00:28:16;;;;;;;29.90;20.30;;;;;;;3.29;100.00;100867.78;700405;28;1086;-65
2022/12/07 00:28:37;;;;;;;28.13;19.92;;;;;;;3.28;100.00;100873.81;699655;28;931;-65
2022/12/07 00:29:00;;;;;;;28.80;21.10;;;;;;;3.27;100.00;100871.16;699298;28;1010;-65
2022/12/07 00:29:24;;;;;;;28.27;21.13;;;;;;;3.25;100.00;100881.44;699449;28;851;-65
2022/12/07 00:29:44;;;;;;;27.90;20.27;;;;;;;3.24;100.00;100877.13;699842;28;780;-65
2022/12/07 00:30:05;;;;;;;29.58;21.10;;;;;;;3.24;100.00;100880.59;696100;28;876;-65
2022/12/07 00:30:25;;;;;;;31.13;21.70;;;;;;;3.25;100.00;100868.53;696714;28;1277;-65
2022/12/07 00:30:46;;;;;;;30.80;21.30;;;;;;;3.24;100.00;100871.97;696527;28;4460;-65
2022/12/07 00:31:11;;;;;;;30.15;21.30;;;;;;;3.34;100.00;100873.09;698364;28;872;-65
2022/12/07 00:31:38;;;;;;;29.50;21.17;;;;;;;3.34;100.00;100873.09;699432;28;1018;-65
2022/12/07 00:32:00;;;;;;;28.98;20.15;;;;;;;3.30;100.00;100873.84;699070;28;991;-65
2022/12/07 00:32:21;;;;;;;31.55;21.00;;;;;;;3.28;100.00;100873.81;702527;28;1420;-65
2022/12/07 00:32:41;;;;;;;33.07;21.47;;;;;;;3.28;100.00;100875.50;702702;28;935;-65
2022/12/07 00:33:01;;;;;;;31.00;20.53;;;;;;;3.27;100.00;100873.72;699343;28;882;-65
2022/12/07 00:33:22;;;;;;;29.83;20.35;;;;;;;3.26;100.00;100866.84;697924;28;978;-65
2022/12/07 00:33:43;;;;;;;31.50;21.17;;;;;;;3.33;100.00;100866.16;699436;28;4377;-65
2022/12/07 00:34:03;;;;;;;32.60;22.13;;;;;;;3.34;100.00;100873.09;698619;28;974;-65
2022/12/07 00:34:23;;;;;;;28.07;20.70;;;;;;;3.28;100.00;100866.06;700097;28;1176;-65
2022/12/07 00:34:44;;;;;;;31.75;21.50;;;;;;;3.27;100.00;100876.31;700233;28;935;-65
2022/12/07 00:35:04;;;;;;;31.00;22.00;;;;;;;3.24;100.00;100877.13;700122;28;806;-65
2022/12/07 00:35:25;;;;;;;30.15;22.35;;;;;;;3.25;100.00;100871.09;700461;28;1235;-65
2022/12/07 00:35:45;;;;;;;29.63;21.20;;;;;;;3.23;100.00;100870.19;699690;28;1236;-65
2022/12/07 00:36:09;;;;;;;33.08;22.02;;;;;;;3.26;100.00;100870.28;700073;28;844;-65
2022/12/07 00:36:29;;;;;;;31.17;22.02;;;;;;;3.30;100.00;100869.53;698538;28;962;-65
2022/12/07 00:36:50;;;;;;;30.60;21.17;;;;;;;3.29;100.00;100870.38;699496;28;4399;-65
2022/12/07 00:37:12;;;;;;;29.90;21.10;;;;;;;3.26;100.00;100872.00;698608;28;1063;-65
2022/12/07 00:37:32;;;;;;;29.65;21.33;;;;;;;3.25;100.00;100873.69;698411;28;863;-65
2022/12/07 00:37:53;;;;;;;30.77;21.53;;;;;;;3.24;100.00;100867.66;699349;28;915;-65
2022/12/07 00:38:13;;;;;;;33.08;21.25;;;;;;;3.24;100.00;100867.66;697259;28;908;-65
2022/12/07 00:38:35;;;;;;;35.27;21.47;;;;;;;3.30;100.00;100866.94;699652;28;876;-65
2022/12/07 00:38:58;;;;;;;30.27;21.65;;;;;;;3.30;100.00;100871.25;699707;28;5063;-65
2022/12/07 00:39:19;;;;;;;30.80;21.20;;;;;;;3.28;100.00;100863.47;698970;28;1233;-65
2022/12/07 00:39:39;;;;;;;31.43;21.93;;;;;;;3.28;100.00;100875.50;698655;28;4303;-65
2022/12/07 00:39:59;;;;;;;31.70;21.60;;;;;;;3.28;100.00;100867.75;699873;28;912;-65
2022/12/07 00:40:20;;;;;;;33.67;22.13;;;;;;;3.26;100.00;100870.28;700197;28;995;-65
2022/12/07 00:40:40;;;;;;;31.17;21.70;;;;;;;3.28;100.00;100867.75;698775;28;1287;-65
2022/12/07 00:41:07;;;;;;;29.23;21.13;;;;;;;3.24;100.00;100866.78;699559;28;951;-65
2022/12/07 00:41:28;;;;;;;27.23;20.80;;;;;;;3.23;100.00;100865.03;698692;28;947;-65
2022/12/07 00:41:49;;;;;;;30.42;21.33;;;;;;;3.22;100.00;100868.44;697357;28;954;-65
2022/12/07 00:42:09;;;;;;;30.60;21.70;;;;;;;3.20;100.00;100860.66;697501;28;1975;-65
2022/12/07 00:42:29;;;;;;;30.87;20.87;;;;;;;3.32;100.00;100867.84;699889;28;800;-65
2022/12/07 00:42:50;;;;;;;32.93;21.57;;;;;;;3.32;100.00;100862.69;697015;28;4461;-65
2022/12/07 00:43:10;;;;;;;31.75;22.13;;;;;;;3.31;100.00;100867.81;696706;28;1036;-65
2022/12/07 00:43:31;;;;;;;31.47;22.40;;;;;;;3.31;100.00;100863.53;697568;28;830;-65
2022/12/07 00:43:52;;;;;;;29.85;21.85;;;;;;;3.37;100.00;100868.88;698252;28;914;-65
2022/12/07 00:44:12;;;;;;;30.08;20.85;;;;;;;3.34;100.00;100866.22;699487;28;955;-65
2022/12/07 00:44:33;;;;;;;30.15;20.95;;;;;;;3.33;100.00;100867.03;699187;28;1030;-65
2022/12/07 00:44:53;;;;;;;30.20;20.93;;;;;;;3.31;100.00;100863.53;698885;28;839;-65
2022/12/07 00:45:14;;;;;;;29.08;21.35;;;;;;;3.34;100.00;100868.78;697697;28;1029;-65
2022/12/07 00:45:34;;;;;;;28.60;21.50;;;;;;;3.36;100.00;100866.25;698240;28;939;-65
2022/12/07 00:45:55;;;;;;;30.17;21.38;;;;;;;3.33;100.00;100864.44;698395;28;4544;-65
2022/12/07 00:46:16;;;;;;;29.42;21.38;;;;;;;3.33;100.00;100861.00;699173;28;916;-65
2022/12/07 00:46:37;;;;;;;29.63;21.05;;;;;;;3.29;100.00;100865.19;697816;28;904;-65
2022/12/07 00:46:57;;;;;;;30.47;21.23;;;;;;;3.30;100.00;100859.19;699411;28;852;-65
2022/12/07 00:47:17;;;;;;;33.75;21.60;;;;;;;3.30;100.00;100864.38;698524;28;943;-65
2022/12/07 00:47:38;;;;;;;27.77;21.00;;;;;;;3.27;100.00;100863.41;698100;28;1162;-65
2022/12/07 00:47:58;;;;;;;30.67;21.83;;;;;;;3.26;100.00;100865.13;699386;28;974;-65
2022/12/07 00:48:19;;;;;;;32.53;21.90;;;;;;;3.25;100.00;100873.69;697854;28;963;-65
2022/12/07 00:48:40;;;;;;;30.10;20.98;;;;;;;3.26;100.00;100867.69;697703;28;4466;-65
2022/12/07 00:49:00;;;;;;;28.08;21.10;;;;;;;3.26;100.00;100865.13;698803;28;1138;-65
2022/12/07 00:49:21;;;;;;;29.77;21.73;;;;;;;3.30;100.00;100866.94;698525;28;1181;-65
2022/12/07 00:49:41;;;;;;;29.27;21.23;;;;;;;3.45;100.00;100865.63;699945;28;1361;-65
2022/12/07 00:50:02;;;;;;;30.15;20.95;;;;;;;3.55;100.00;100868.50;701484;28;1348;-65
2022/12/07 00:50:22;;;;;;;29.27;21.10;;;;;;;3.54;100.00;100860.72;700110;28;1036;-65
2022/12/07 00:50:43;;;;;;;28.27;20.67;;;;;;;3.52;100.00;100862.38;701061;28;910;-65
2022/12/07 00:51:05;;;;;;;30.07;20.83;;;;;;;3.47;100.00;100864.81;701594;28;1204;-65
2022/12/07 00:51:26;;;;;;;29.25;20.80;;;;;;;3.53;100.00;100866.69;700146;28;1305;-66
2022/12/07 00:51:49;;;;;;;28.20;20.50;;;;;;;3.48;100.00;100866.59;698850;28;4520;-65
2022/12/07 00:52:09;;;;;;;27.55;20.33;;;;;;;3.46;100.00;100862.22;695743;28;1038;-66
2022/12/07 00:52:29;;;;;;;27.73;20.48;;;;;;;3.40;100.00;100858.59;695273;28;1140;-66
2022/12/07 00:52:49;;;;;;;27.27;20.63;;;;;;;3.39;100.00;100862.06;696339;28;769;-65
2022/12/07 00:53:10;;;;;;;27.50;20.50;;;;;;;3.43;100.00;100867.31;695987;28;1366;-66
2022/12/07 00:53:33;;;;;;;26.57;20.13;;;;;;;3.40;100.00;100860.34;696881;28;808;-66
2022/12/07 00:53:53;;;;;;;28.10;20.38;;;;;;;3.38;100.00;100859.44;696797;28;816;-66
2022/12/07 00:54:14;;;;;;;27.52;20.08;;;;;;;3.37;100.00;100866.28;700343;28;1254;-66
2022/12/07 00:54:34;;;;;;;28.83;20.03;;;;;;;3.37;100.00;100873.19;697829;28;853;-66
2022/12/07 00:54:54;;;;;;;27.90;20.43;;;;;;;3.35;100.00;100865.38;696982;28;4393;-66
2022/12/07 00:55:15;;;;;;;29.02;20.45;;;;;;;3.36;100.00;100872.28;698768;28;1054;-66
2022/12/07 00:55:35;;;;;;;30.70;20.47;;;;;;;3.41;100.00;100865.53;698740;28;922;-65
2022/12/07 00:55:56;;;;;;;29.20;20.13;;;;;;;3.44;100.00;100866.47;698465;28;990;-66
2022/12/07 00:56:19;;;;;;;28.43;20.27;;;;;;;3.39;100.00;100864.63;697299;28;1352;-66
2022/12/07 00:56:39;;;;;;;27.67;20.48;;;;;;;3.36;100.00;100861.94;696350;28;1206;-65
2022/12/07 00:57:00;;;;;;;26.13;20.43;;;;;;;3.35;100.00;100865.38;697919;28;911;-65
2022/12/07 00:57:20;;;;;;;27.50;19.97;;;;;;;3.38;100.00;100864.59;697159;28;1013;-66
2022/12/07 00:57:40;;;;;;;27.83;20.35;;;;;;;3.33;100.00;100861.88;696881;28;4411;-66
2022/12/07 00:58:01;;;;;;;29.13;20.63;;;;;;;3.33;100.00;100863.59;696959;28;799;-66
2022/12/07 00:58:23;;;;;;;27.80;20.15;;;;;;;3.31;100.00;100860.06;697982;28;971;-66
2022/12/07 00:58:43;;;;;;;26.55;20.45;;;;;;;3.30;100.00;100866.09;698336;28;836;-66
2022/12/07 00:59:04;;;;;;;28.65;20.88;;;;;;;3.31;100.00;100863.53;697570;28;982;-65
2022/12/07 00:59:25;;;;;;;31.30;20.97;;;;;;;3.30;100.00;100861.78;699251;28;1113;-66
2022/12/07 00:59:45;;;;;;;29.10;21.20;;;;;;;3.29;100.00;100854.84;700050;28;1006;-66
2022/12/07 01:00:06;;;;;;;28.63;21.30;;;;;;;3.38;100.00;100857.72;702022;28;1372;-66
2022/12/07 01:00:26;;;;;;;28.55;21.23;;;;;;;3.47;100.00;100862.25;702435;28;844;-66
2022/12/07 01:00:47;;;;;;;29.60;21.63;;;;;;;3.45;100.00;100861.34;700065;28;4429;-65
2022/12/07 01:01:09;;;;;;;30.30;21.30;;;;;;;3.41;100.00;100862.94;701282;28;1025;-66
2022/12/07 01:01:35;;;;;;;30.35;21.23;;;;;;;3.43;100.00;100865.56;703866;27;1407;-66
2022/12/07 01:01:56;;;;;;;27.08;20.48;;;;;;;3.41;100.00;100862.94;700945;28;955;-66
2022/12/07 01:02:16;;;;;;;27.33;20.27;;;;;;;3.50;100.00;100853.69;700066;28;1913;-65
2022/12/07 01:02:36;;;;;;;27.60;20.17;;;;;;;3.55;100.00;100858.16;699499;28;915;-66
2022/12/07 01:02:56;;;;;;;28.30;20.43;;;;;;;3.51;100.00;100855.47;698961;28;1091;-66
2022/12/07 01:03:17;;;;;;;30.20;20.93;;;;;;;3.47;100.00;100863.97;699430;28;1226;-66
2022/12/07 01:03:38;;;;;;;27.65;20.65;;;;;;;3.43;100.00;100860.41;699558;28;4395;-66
2022/12/07 01:04:00;;;;;;;26.65;20.83;;;;;;;3.38;100.00;100855.13;699395;28;999;-66
2022/12/07 01:04:21;;;;;;;31.25;20.80;;;;;;;3.43;100.00;100863.00;698442;28;1075;-66
2022/12/07 01:04:41;;;;;;;29.63;20.57;;;;;;;3.39;100.00;100856.00;699613;28;1100;-66
2022/12/07 01:05:02;;;;;;;27.30;20.53;;;;;;;3.37;100.00;100855.94;700967;28;1223;-66
2022/12/07 01:05:22;;;;;;;26.25;20.60;;;;;;;3.39;100.00;100853.41;697670;28;1243;-66
2022/12/07 01:05:53;;;;;;;29.00;20.93;;;;;;;3.41;100.00;100851.75;697331;28;813;-66
2022/12/07 01:06:16;;;;;;;27.30;20.38;;;;;;;3.39;100.00;100856.00;696638;28;935;-66
2022/12/07 01:06:36;;;;;;;27.67;20.35;;;;;;;3.38;100.00;100855.13;695717;28;1109;-66
2022/12/07 01:06:56;;;;;;;28.30;20.23;;;;;;;3.36;100.00;100851.59;695952;28;4341;-66
2022/12/07 01:07:17;;;;;;;28.50;20.67;;;;;;;3.38;100.00;100849.97;697988;28;951;-66
2022/12/07 01:07:37;;;;;;;28.00;20.83;;;;;;;3.37;100.00;100858.53;697976;28;903;-66
2022/12/07 01:07:58;;;;;;;28.03;20.83;;;;;;;3.36;100.00;100854.19;698310;28;990;-66
2022/12/07 01:08:18;;;;;;;28.57;21.00;;;;;;;3.34;100.00;100852.44;698265;28;1055;-67
2022/12/07 01:08:38;;;;;;;28.40;20.55;;;;;;;3.34;100.00;100858.47;697252;28;868;-66
2022/12/07 01:08:59;;;;;;;28.47;20.87;;;;;;;3.33;100.00;100848.94;697577;28;800;-66
2022/12/07 01:09:20;;;;;;;27.48;20.80;;;;;;;3.33;100.00;100861.00;697021;28;1192;-66
2022/12/07 01:09:40;;;;;;;27.15;20.77;;;;;;;3.35;100.00;100855.03;698642;28;4394;-66
2022/12/07 01:10:00;;;;;;;27.77;20.60;;;;;;;3.36;100.00;100859.34;699316;28;1422;-66
2022/12/07 01:10:22;;;;;;;28.13;20.83;;;;;;;3.45;100.00;100855.28;698365;28;977;-66
2022/12/07 01:10:42;;;;;;;28.85;20.98;;;;;;;3.49;100.00;100860.59;698650;28;902;-66
2022/12/07 01:11:06;;;;;;;28.17;20.67;;;;;;;3.48;100.00;100855.38;698614;28;799;-66
2022/12/07 01:11:29;;;;;;;27.73;20.48;;;;;;;3.51;100.00;100851.16;700051;28;1206;-66
2022/12/07 01:11:49;;;;;;;27.25;20.08;;;;;;;3.52;100.00;100858.09;700042;28;1421;-66
2022/12/07 01:12:10;;;;;;;25.38;19.80;;;;;;;3.48;100.00;100851.09;696120;28;1001;-66
2022/12/07 01:12:30;;;;;;;27.87;20.83;;;;;;;3.46;100.00;100852.75;698568;28;701;-67
2022/12/07 01:12:50;;;;;;;27.42;20.65;;;;;;;3.43;100.00;100857.81;699007;28;4485;-66
2022/12/07 01:13:11;;;;;;;27.37;20.37;;;;;;;3.40;100.00;100858.59;697467;28;1019;-66
2022/12/07 01:13:32;;;;;;;27.43;20.10;;;;;;;3.38;100.00;100854.25;697929;28;1073;-66
2022/12/07 01:13:55;;;;;;;29.05;20.60;;;;;;;3.37;100.00;100855.94;698234;28;761;-66
2022/12/07 01:14:15;;;;;;;29.95;21.27;;;;;;;3.38;100.00;100859.44;698424;28;1071;-66
2022/12/07 01:14:36;;;;;;;27.33;20.83;;;;;;;3.37;100.00;100853.38;698624;28;1273;-66
2022/12/07 01:14:56;;;;;;;26.55;20.52;;;;;;;3.45;100.00;100855.28;699833;28;860;-65
2022/12/07 01:15:17;;;;;;;27.30;20.90;;;;;;;3.41;100.00;100854.34;700289;28;1217;-66
2022/12/07 01:15:44;;;;;;;27.85;20.90;;;;;;;3.39;100.00;100863.75;698669;28;4447;-66
2022/12/07 01:16:06;;;;;;;27.17;20.15;;;;;;;3.38;100.00;100849.09;699914;28;916;-66
2022/12/07 01:16:29;;;;;;;26.30;19.73;;;;;;;3.44;100.00;100853.56;697323;28;3927;-65
2022/12/07 01:16:49;;;;;;;27.58;20.08;;;;;;;3.44;100.00;100854.41;700848;28;1022;-66
2022/12/07 01:17:10;;;;;;;27.83;20.97;;;;;;;3.43;100.00;100860.41;699623;28;1165;-66
2022/12/07 01:17:30;;;;;;;27.33;20.80;;;;;;;3.39;100.00;100856.00;698766;28;1194;-65
2022/12/07 01:17:51;;;;;;;27.67;20.63;;;;;;;3.38;100.00;100860.28;697892;28;1253;-66
2022/12/07 01:18:11;;;;;;;27.77;20.73;;;;;;;3.36;100.00;100856.78;698105;28;1194;-67
2022/12/07 01:18:34;;;;;;;26.70;20.48;;;;;;;3.34;100.00;100857.59;696656;28;1234;-66
2022/12/07 01:18:56;;;;;;;28.35;20.23;;;;;;;3.33;100.00;100856.69;695133;28;4576;-66
2022/12/07 01:19:16;;;;;;;27.23;20.75;;;;;;;3.32;100.00;100857.53;695601;28;1127;-66
2022/12/07 01:19:40;;;;;;;28.57;20.63;;;;;;;3.31;100.00;100853.22;695134;28;1404;-66
2022/12/07 01:20:01;;;;;;;29.63;20.73;;;;;;;3.37;100.00;100852.50;693974;28;1345;-66
2022/12/07 01:20:22;;;;;;;28.88;21.08;;;;;;;3.37;100.00;100860.25;697758;28;1444;-66
2022/12/07 01:20:42;;;;;;;28.67;21.58;;;;;;;3.34;100.00;100853.28;697009;28;1222;-66
2022/12/07 01:21:14;;;;;;;27.17;20.93;;;;;;;3.33;100.00;100851.53;698757;28;1146;-66
2022/12/07 01:21:37;;;;;;;27.40;21.08;;;;;;;3.34;100.00;100853.28;696933;28;1154;-66
2022/12/07 01:21:57;;;;;;;27.17;20.88;;;;;;;3.32;100.00;100854.94;699103;28;4628;-67
2022/12/07 01:22:17;;;;;;;26.10;21.02;;;;;;;3.30;100.00;100854.03;697688;28;1922;-66
2022/12/07 01:22:42;;;;;;;27.03;20.97;;;;;;;3.32;100.00;100854.94;698930;28;1206;-66
2022/12/07 01:23:02;;;;;;;29.95;21.17;;;;;;;3.36;100.00;100859.34;697887;28;1230;-66
2022/12/07 01:23:22;;;;;;;29.30;21.10;;;;;;;3.35;100.00;100854.16;700148;28;1122;-66
2022/12/07 01:23:43;;;;;;;29.13;21.07;;;;;;;3.34;100.00;100863.63;698382;28;1202;-67
2022/12/07 01:24:09;;;;;;;28.13;21.17;;;;;;;3.33;100.00;100854.13;698247;28;1143;-66
2022/12/07 01:24:29;;;;;;;28.83;20.60;;;;;;;3.31;100.00;100858.38;697725;28;1052;-66
2022/12/07 01:24:49;;;;;;;28.30;20.23;;;;;;;3.49;100.00;100859.69;696823;28;4657;-65
2022/12/07 01:25:11;;;;;;;27.30;20.53;;;;;;;3.53;100.00;100849.50;696104;28;1164;-65
2022/12/07 01:25:31;;;;;;;27.00;20.42;;;;;;;3.50;100.00;100852.00;695969;28;1165;-66
2022/12/07 01:25:59;;;;;;;28.13;20.50;;;;;;;3.48;100.00;100860.56;696778;28;1263;-66
2022/12/07 01:26:23;;;;;;;28.40;21.65;;;;;;;3.45;100.00;100855.28;696672;28;1245;-66
2022/12/07 01:26:43;;;;;;;27.73;20.50;;;;;;;3.41;100.00;100854.34;697338;28;1091;-66
2022/12/07 01:27:04;;;;;;;27.95;20.90;;;;;;;3.41;100.00;100849.16;696299;28;1195;-66
2022/12/07 01:27:24;;;;;;;26.40;20.57;;;;;;;3.41;100.00;100849.16;694349;28;1162;-66
2022/12/07 01:27:44;;;;;;;27.97;20.73;;;;;;;3.39;100.00;100849.13;693726;28;4576;-66
2022/12/07 01:28:05;;;;;;;28.77;21.05;;;;;;;3.36;100.00;100851.59;694527;28;793;-66
2022/12/07 01:28:26;;;;;;;29.13;21.60;;;;;;;3.34;100.00;100853.28;693817;28;1103;-66
2022/12/07 01:28:47;;;;;;;27.25;20.75;;;;;;;3.33;100.00;100854.13;694063;28;924;-66
2022/12/07 01:29:07;;;;;;;29.08;20.83;;;;;;;3.31;100.00;100853.22;694069;28;1247;-66
2022/12/07 01:29:27;;;;;;;30.30;21.67;;;;;;;3.29;100.00;100857.44;694376;28;1167;-66
2022/12/07 01:29:48;;;;;;;28.80;21.20;;;;;;;3.30;100.00;100858.34;695606;28;1246;-71
2022/12/07 01:30:10;;;;;;;29.17;21.60;;;;;;;3.28;100.00;100858.31;695296;28;1063;-66
2022/12/07 01:30:30;;;;;;;28.50;21.77;;;;;;;3.27;100.00;100859.13;697828;28;1215;-66
2022/12/07 01:30:58;;;;;;;28.97;21.33;;;;;;;3.30;100.00;100853.16;695908;28;4362;-67
2022/12/07 01:31:21;;;;;;;31.05;22.45;;;;;;;3.27;100.00;100856.53;695511;28;1326;-66
2022/12/07 01:31:41;;;;;;;28.83;21.38;;;;;;;3.27;100.00;100859.13;695999;28;1269;-66
2022/12/07 01:32:02;;;;;;;28.10;21.20;;;;;;;3.26;100.00;100854.78;695836;28;1163;-66
2022/12/07 01:32:22;;;;;;;30.02;21.95;;;;;;;3.26;100.00;100859.94;697904;28;1447;-66
2022/12/07 01:32:42;;;;;;;31.10;22.17;;;;;;;3.24;100.00;100857.31;696769;28;1277;-66
2022/12/07 01:33:03;;;;;;;28.83;21.53;;;;;;;3.26;100.00;100853.91;696541;28;1174;-66
2022/12/07 01:33:23;;;;;;;28.30;21.20;;;;;;;3.23;100.00;100855.56;695974;28;1224;-66
2022/12/07 01:33:46;;;;;;;28.97;21.10;;;;;;;3.23;100.00;100858.16;695322;28;4481;-66
2022/12/07 01:34:06;;;;;;;27.35;21.17;;;;;;;3.22;100.00;100856.38;698079;28;1191;-66
2022/12/07 01:34:26;;;;;;;28.83;21.75;;;;;;;3.21;100.00;100862.41;699177;28;1186;-66
2022/12/07 01:34:50;;;;;;;30.27;22.17;;;;;;;3.24;100.00;100859.03;698644;28;1162;-66
2022/12/07 01:35:10;;;;;;;27.90;21.42;;;;;;;3.24;100.00;100856.47;698931;28;1225;-66
2022/12/07 01:35:33;;;;;;;28.87;21.83;;;;;;;3.24;100.00;100857.31;699195;28;1063;-66
2022/12/07 01:35:54;;;;;;;29.75;22.40;;;;;;;3.24;100.00;100859.03;696877;28;1229;-66
2022/12/07 01:36:21;;;;;;;29.73;21.98;;;;;;;3.23;100.00;100855.56;695564;28;1290;-66
2022/12/07 01:36:41;;;;;;;27.80;21.23;;;;;;;3.22;100.00;100858.97;696495;28;4354;-66
2022/12/07 01:37:02;;;;;;;29.57;21.70;;;;;;;3.24;100.00;100866.78;695796;28;1211;-67
2022/12/07 01:37:22;;;;;;;32.03;22.00;;;;;;;3.27;100.00;100856.53;694808;28;1014;-64
2022/12/07 01:37:42;;;;;;;28.20;21.03;;;;;;;3.28;100.00;100866.06;693884;28;1258;-64
2022/12/07 01:38:03;;;;;;;28.73;21.80;;;;;;;3.25;100.00;100868.53;696291;28;1285;-64
2022/12/07 01:38:23;;;;;;;30.70;22.13;;;;;;;3.26;100.00;100859.09;699182;28;1324;-66
2022/12/07 01:38:45;;;;;;;29.17;21.33;;;;;;;3.34;100.00;100862.75;697562;28;1247;-66
2022/12/07 01:39:07;;;;;;;28.02;20.95;;;;;;;3.45;100.00;100855.28;698319;28;1102;-67
2022/12/07 01:39:27;;;;;;;28.30;20.56;;;;;;;3.43;100.00;100863.00;698333;28;1319;-66